sensor_id;sensor_type;location;lat;lon;timestamp;P1;durP1;ratioP1;P2;durP2;ratioP2
56770;SDS011;42641;59.794;17.616;2023-04-01T00:00:57;4.03;;;2.00;;
56770;SDS011;42641;59.794;17.616;2023-04-01T00:03:25;5.70;;;2.30;;
56770;SDS011;42641;59.794;17.616;2023-04-01T00:05:53;3.70;;;1.77;;
56770;SDS011;42641;59.794;17.616;2023-04-01T00:08:21;2.83;;;1.90;;
56770;SDS011;42641;59.794;17.616;2023-04-01T00:10:48;3.90;;;1.77;;
56770;SDS011;42641;59.794;17.616;2023-04-01T00:13:15;2.90;;;1.97;;
56770;SDS011;42641;59.794;17.616;2023-04-01T00:15:42;2.40;;;1.90;;
56770;SDS011;42641;59.794;17.616;2023-04-01T00:18:09;2.37;;;1.90;;
56770;SDS011;42641;59.794;17.616;2023-04-01T00:20:36;2.83;;;1.90;;
56770;SDS011;42641;59.794;17.616;2023-04-01T00:23:03;2.67;;;1.97;;
56770;SDS011;42641;59.794;17.616;2023-04-01T00:25:30;4.57;;;1.97;;
56770;SDS011;42641;59.794;17.616;2023-04-01T00:27:57;3.07;;;1.80;;
56770;SDS011;42641;59.794;17.616;2023-04-01T00:30:23;2.43;;;2.00;;
56770;SDS011;42641;59.794;17.616;2023-04-01T00:32:53;4.97;;;1.97;;
56770;SDS011;42641;59.794;17.616;2023-04-01T00:35:20;3.00;;;1.90;;
56770;SDS011;42641;59.794;17.616;2023-04-01T00:37:46;3.53;;;2.00;;
56770;SDS011;42641;59.794;17.616;2023-04-01T00:40:30;3.93;;;2.00;;
56770;SDS011;42641;59.794;17.616;2023-04-01T00:42:58;3.53;;;1.83;;
56770;SDS011;42641;59.794;17.616;2023-04-01T00:48:09;3.00;;;2.03;;
56770;SDS011;42641;59.794;17.616;2023-04-01T00:50:38;1.73;;;1.63;;
56770;SDS011;42641;59.794;17.616;2023-04-01T00:53:07;3.00;;;1.70;;
56770;SDS011;42641;59.794;17.616;2023-04-01T00:55:35;2.30;;;1.70;;
56770;SDS011;42641;59.794;17.616;2023-04-01T00:58:07;3.23;;;1.80;;
56770;SDS011;42641;59.794;17.616;2023-04-01T01:00:36;2.00;;;1.60;;
56770;SDS011;42641;59.794;17.616;2023-04-01T01:03:04;2.23;;;1.60;;
56770;SDS011;42641;59.794;17.616;2023-04-01T01:06:36;2.43;;;1.60;;
56770;SDS011;42641;59.794;17.616;2023-04-01T01:09:10;2.47;;;1.73;;
56770;SDS011;42641;59.794;17.616;2023-04-01T01:11:58;2.87;;;1.67;;
56770;SDS011;42641;59.794;17.616;2023-04-01T01:17:20;3.60;;;1.67;;
56770;SDS011;42641;59.794;17.616;2023-04-01T01:22:49;1.83;;;1.40;;
56770;SDS011;42641;59.794;17.616;2023-04-01T01:28:35;3.77;;;1.57;;
56770;SDS011;42641;59.794;17.616;2023-04-01T01:36:30;2.60;;;1.60;;
56770;SDS011;42641;59.794;17.616;2023-04-01T01:39:06;1.43;;;1.33;;
56770;SDS011;42641;59.794;17.616;2023-04-01T01:41:34;1.80;;;1.60;;
56770;SDS011;42641;59.794;17.616;2023-04-01T01:44:02;1.53;;;1.30;;
56770;SDS011;42641;59.794;17.616;2023-04-01T01:46:32;1.70;;;1.60;;
56770;SDS011;42641;59.794;17.616;2023-04-01T01:48:59;2.57;;;1.60;;
56770;SDS011;42641;59.794;17.616;2023-04-01T01:51:27;1.63;;;1.53;;
56770;SDS011;42641;59.794;17.616;2023-04-01T01:53:54;1.73;;;1.43;;
56770;SDS011;42641;59.794;17.616;2023-04-01T01:56:22;1.83;;;1.40;;
56770;SDS011;42641;59.794;17.616;2023-04-01T01:58:54;1.63;;;1.53;;
56770;SDS011;42641;59.794;17.616;2023-04-01T02:01:29;1.53;;;1.43;;
56770;SDS011;42641;59.794;17.616;2023-04-01T02:04:06;3.03;;;1.67;;
56770;SDS011;42641;59.794;17.616;2023-04-01T02:06:36;1.80;;;1.50;;
56770;SDS011;42641;59.794;17.616;2023-04-01T02:09:06;4.20;;;1.60;;
56770;SDS011;42641;59.794;17.616;2023-04-01T02:11:53;2.30;;;1.30;;
56770;SDS011;42641;59.794;17.616;2023-04-01T02:14:23;1.60;;;1.50;;
56770;SDS011;42641;59.794;17.616;2023-04-01T02:17:16;1.63;;;1.40;;
56770;SDS011;42641;59.794;17.616;2023-04-01T02:19:50;1.40;;;1.30;;
56770;SDS011;42641;59.794;17.616;2023-04-01T02:22:21;1.63;;;1.50;;
56770;SDS011;42641;59.794;17.616;2023-04-01T02:24:53;1.87;;;1.43;;
56770;SDS011;42641;59.794;17.616;2023-04-01T02:27:23;4.63;;;1.47;;
56770;SDS011;42641;59.794;17.616;2023-04-01T02:29:51;1.93;;;1.47;;
56770;SDS011;42641;59.794;17.616;2023-04-01T02:32:18;1.50;;;1.40;;
56770;SDS011;42641;59.794;17.616;2023-04-01T02:34:46;2.17;;;1.63;;
56770;SDS011;42641;59.794;17.616;2023-04-01T02:37:13;2.37;;;1.70;;
56770;SDS011;42641;59.794;17.616;2023-04-01T02:39:41;2.07;;;1.70;;
56770;SDS011;42641;59.794;17.616;2023-04-01T02:42:08;1.60;;;1.40;;
56770;SDS011;42641;59.794;17.616;2023-04-01T02:44:35;3.17;;;1.60;;
56770;SDS011;42641;59.794;17.616;2023-04-01T02:47:02;2.63;;;2.03;;
56770;SDS011;42641;59.794;17.616;2023-04-01T02:49:28;1.50;;;1.40;;
56770;SDS011;42641;59.794;17.616;2023-04-01T02:51:55;1.83;;;1.67;;
56770;SDS011;42641;59.794;17.616;2023-04-01T02:54:21;3.73;;;1.63;;
56770;SDS011;42641;59.794;17.616;2023-04-01T02:56:47;3.53;;;1.47;;
56770;SDS011;42641;59.794;17.616;2023-04-01T02:59:14;2.40;;;1.60;;
56770;SDS011;42641;59.794;17.616;2023-04-01T03:01:40;3.90;;;1.80;;
56770;SDS011;42641;59.794;17.616;2023-04-01T03:04:07;2.50;;;1.53;;
56770;SDS011;42641;59.794;17.616;2023-04-01T03:06:33;1.97;;;1.50;;
56770;SDS011;42641;59.794;17.616;2023-04-01T03:09:00;2.00;;;1.67;;
56770;SDS011;42641;59.794;17.616;2023-04-01T03:11:26;2.97;;;1.50;;
56770;SDS011;42641;59.794;17.616;2023-04-01T03:13:53;6.43;;;1.50;;
56770;SDS011;42641;59.794;17.616;2023-04-01T03:16:19;1.37;;;1.27;;
56770;SDS011;42641;59.794;17.616;2023-04-01T03:18:46;2.23;;;1.40;;
56770;SDS011;42641;59.794;17.616;2023-04-01T03:21:19;4.10;;;1.70;;
56770;SDS011;42641;59.794;17.616;2023-04-01T03:23:47;3.40;;;1.97;;
56770;SDS011;42641;59.794;17.616;2023-04-01T03:26:14;2.13;;;1.40;;
56770;SDS011;42641;59.794;17.616;2023-04-01T03:28:42;1.97;;;1.40;;
56770;SDS011;42641;59.794;17.616;2023-04-01T03:31:09;2.07;;;1.37;;
56770;SDS011;42641;59.794;17.616;2023-04-01T03:33:42;2.30;;;1.53;;
56770;SDS011;42641;59.794;17.616;2023-04-01T03:36:09;2.47;;;1.60;;
56770;SDS011;42641;59.794;17.616;2023-04-01T03:38:37;1.90;;;1.60;;
56770;SDS011;42641;59.794;17.616;2023-04-01T03:41:04;2.90;;;1.60;;
56770;SDS011;42641;59.794;17.616;2023-04-01T03:43:32;1.57;;;1.40;;
56770;SDS011;42641;59.794;17.616;2023-04-01T03:45:59;2.60;;;1.77;;
56770;SDS011;42641;59.794;17.616;2023-04-01T03:48:26;1.93;;;1.40;;
56770;SDS011;42641;59.794;17.616;2023-04-01T03:50:53;3.50;;;1.70;;
56770;SDS011;42641;59.794;17.616;2023-04-01T03:53:19;4.37;;;1.70;;
56770;SDS011;42641;59.794;17.616;2023-04-01T03:55:47;4.13;;;1.90;;
56770;SDS011;42641;59.794;17.616;2023-04-01T03:58:14;1.57;;;1.40;;
56770;SDS011;42641;59.794;17.616;2023-04-01T04:00:41;2.47;;;1.73;;
56770;SDS011;42641;59.794;17.616;2023-04-01T04:03:08;2.30;;;1.50;;
56770;SDS011;42641;59.794;17.616;2023-04-01T04:05:35;3.47;;;1.50;;
56770;SDS011;42641;59.794;17.616;2023-04-01T04:08:02;3.27;;;1.90;;
56770;SDS011;42641;59.794;17.616;2023-04-01T04:10:28;2.27;;;1.60;;
56770;SDS011;42641;59.794;17.616;2023-04-01T04:12:55;2.33;;;1.67;;
56770;SDS011;42641;59.794;17.616;2023-04-01T04:15:23;5.27;;;1.60;;
56770;SDS011;42641;59.794;17.616;2023-04-01T04:17:50;2.10;;;1.83;;
56770;SDS011;42641;59.794;17.616;2023-04-01T04:20:17;4.30;;;1.93;;
56770;SDS011;42641;59.794;17.616;2023-04-01T04:22:44;3.23;;;1.70;;
56770;SDS011;42641;59.794;17.616;2023-04-01T04:25:10;3.23;;;2.40;;
56770;SDS011;42641;59.794;17.616;2023-04-01T04:27:38;2.83;;;1.93;;
56770;SDS011;42641;59.794;17.616;2023-04-01T04:30:11;2.30;;;1.93;;
56770;SDS011;42641;59.794;17.616;2023-04-01T04:32:39;1.93;;;1.60;;
56770;SDS011;42641;59.794;17.616;2023-04-01T04:35:07;2.13;;;1.70;;
56770;SDS011;42641;59.794;17.616;2023-04-01T04:37:34;2.37;;;1.77;;
56770;SDS011;42641;59.794;17.616;2023-04-01T04:40:00;3.80;;;2.40;;
56770;SDS011;42641;59.794;17.616;2023-04-01T04:42:28;1.93;;;1.73;;
56770;SDS011;42641;59.794;17.616;2023-04-01T04:45:00;3.47;;;1.93;;
56770;SDS011;42641;59.794;17.616;2023-04-01T04:47:27;2.33;;;2.00;;
56770;SDS011;42641;59.794;17.616;2023-04-01T04:49:53;2.73;;;1.83;;
56770;SDS011;42641;59.794;17.616;2023-04-01T04:52:20;4.47;;;2.17;;
56770;SDS011;42641;59.794;17.616;2023-04-01T04:54:46;2.43;;;1.70;;
56770;SDS011;42641;59.794;17.616;2023-04-01T04:57:13;4.70;;;2.03;;
56770;SDS011;42641;59.794;17.616;2023-04-01T04:59:46;2.50;;;1.90;;
56770;SDS011;42641;59.794;17.616;2023-04-01T05:02:19;2.13;;;1.93;;
56770;SDS011;42641;59.794;17.616;2023-04-01T05:04:46;2.87;;;2.23;;
56770;SDS011;42641;59.794;17.616;2023-04-01T05:07:14;2.37;;;2.10;;
56770;SDS011;42641;59.794;17.616;2023-04-01T05:09:40;3.73;;;2.27;;
56770;SDS011;42641;59.794;17.616;2023-04-01T05:12:07;3.40;;;2.30;;
56770;SDS011;42641;59.794;17.616;2023-04-01T05:14:57;4.50;;;2.00;;
56770;SDS011;42641;59.794;17.616;2023-04-01T05:17:23;2.03;;;1.73;;
56770;SDS011;42641;59.794;17.616;2023-04-01T05:19:50;3.90;;;2.30;;
56770;SDS011;42641;59.794;17.616;2023-04-01T05:22:16;2.77;;;1.60;;
56770;SDS011;42641;59.794;17.616;2023-04-01T05:24:43;4.30;;;2.00;;
56770;SDS011;42641;59.794;17.616;2023-04-01T05:27:10;2.83;;;1.80;;
56770;SDS011;42641;59.794;17.616;2023-04-01T05:29:39;3.23;;;1.87;;
56770;SDS011;42641;59.794;17.616;2023-04-01T05:32:08;4.47;;;2.20;;
56770;SDS011;42641;59.794;17.616;2023-04-01T05:34:35;2.27;;;1.87;;
56770;SDS011;42641;59.794;17.616;2023-04-01T05:37:01;2.47;;;2.00;;
56770;SDS011;42641;59.794;17.616;2023-04-01T05:39:28;4.50;;;2.43;;
56770;SDS011;42641;59.794;17.616;2023-04-01T05:41:55;2.73;;;1.73;;
56770;SDS011;42641;59.794;17.616;2023-04-01T05:44:21;2.17;;;1.80;;
56770;SDS011;42641;59.794;17.616;2023-04-01T05:46:47;2.87;;;1.90;;
56770;SDS011;42641;59.794;17.616;2023-04-01T05:49:18;2.47;;;2.00;;
56770;SDS011;42641;59.794;17.616;2023-04-01T05:51:45;5.50;;;2.43;;
56770;SDS011;42641;59.794;17.616;2023-04-01T05:54:12;4.60;;;2.20;;
56770;SDS011;42641;59.794;17.616;2023-04-01T05:56:39;2.40;;;1.97;;
56770;SDS011;42641;59.794;17.616;2023-04-01T05:59:05;2.20;;;2.00;;
56770;SDS011;42641;59.794;17.616;2023-04-01T06:01:32;5.43;;;2.13;;
56770;SDS011;42641;59.794;17.616;2023-04-01T06:03:58;3.07;;;2.23;;
56770;SDS011;42641;59.794;17.616;2023-04-01T06:06:26;3.53;;;2.20;;
56770;SDS011;42641;59.794;17.616;2023-04-01T06:09:19;2.60;;;1.90;;
56770;SDS011;42641;59.794;17.616;2023-04-01T06:17:59;4.33;;;2.07;;
56770;SDS011;42641;59.794;17.616;2023-04-01T06:20:30;4.67;;;2.10;;
56770;SDS011;42641;59.794;17.616;2023-04-01T06:25:54;3.93;;;1.93;;
56770;SDS011;42641;59.794;17.616;2023-04-01T06:31:25;2.67;;;1.90;;
56770;SDS011;42641;59.794;17.616;2023-04-01T06:36:45;3.77;;;2.10;;
56770;SDS011;42641;59.794;17.616;2023-04-01T06:48:35;5.90;;;2.50;;
56770;SDS011;42641;59.794;17.616;2023-04-01T06:55:12;3.83;;;2.27;;
56770;SDS011;42641;59.794;17.616;2023-04-01T06:58:04;2.73;;;1.90;;
56770;SDS011;42641;59.794;17.616;2023-04-01T07:00:38;2.97;;;2.00;;
56770;SDS011;42641;59.794;17.616;2023-04-01T07:03:32;2.30;;;1.80;;
56770;SDS011;42641;59.794;17.616;2023-04-01T07:05:56;5.67;;;1.90;;
56770;SDS011;42641;59.794;17.616;2023-04-01T07:08:28;4.07;;;1.90;;
56770;SDS011;42641;59.794;17.616;2023-04-01T07:11:04;2.67;;;1.90;;
56770;SDS011;42641;59.794;17.616;2023-04-01T07:13:52;3.20;;;1.93;;
56770;SDS011;42641;59.794;17.616;2023-04-01T07:19:30;2.83;;;1.90;;
56770;SDS011;42641;59.794;17.616;2023-04-01T07:22:10;2.33;;;1.70;;
56770;SDS011;42641;59.794;17.616;2023-04-01T07:25:22;2.60;;;1.63;;
56770;SDS011;42641;59.794;17.616;2023-04-01T07:28:14;2.90;;;1.63;;
56770;SDS011;42641;59.794;17.616;2023-04-01T07:33:49;2.70;;;1.63;;
56770;SDS011;42641;59.794;17.616;2023-04-01T07:36:39;2.70;;;1.60;;
56770;SDS011;42641;59.794;17.616;2023-04-01T07:42:09;4.03;;;2.70;;
56770;SDS011;42641;59.794;17.616;2023-04-01T07:48:01;2.83;;;1.83;;
56770;SDS011;42641;59.794;17.616;2023-04-01T07:50:34;2.77;;;1.80;;
56770;SDS011;42641;59.794;17.616;2023-04-01T07:53:25;3.40;;;1.97;;
56770;SDS011;42641;59.794;17.616;2023-04-01T07:56:09;2.67;;;1.57;;
56770;SDS011;42641;59.794;17.616;2023-04-01T07:59:02;3.97;;;1.60;;
56770;SDS011;42641;59.794;17.616;2023-04-01T08:02:24;4.80;;;2.00;;
56770;SDS011;42641;59.794;17.616;2023-04-01T08:05:04;5.03;;;1.83;;
56770;SDS011;42641;59.794;17.616;2023-04-01T08:07:40;3.20;;;1.60;;
56770;SDS011;42641;59.794;17.616;2023-04-01T09:55:06;1.63;;;0.80;;
56770;SDS011;42641;59.794;17.616;2023-04-01T10:23:48;2.50;;;0.73;;
56770;SDS011;42641;59.794;17.616;2023-04-01T10:30:04;1.60;;;0.97;;
56770;SDS011;42641;59.794;17.616;2023-04-01T10:48:07;1.60;;;0.70;;
56770;SDS011;42641;59.794;17.616;2023-04-01T10:54:13;0.63;;;0.50;;
56770;SDS011;42641;59.794;17.616;2023-04-01T11:36:08;0.30;;;0.30;;
56770;SDS011;42641;59.794;17.616;2023-04-01T11:38:44;0.90;;;0.30;;
56770;SDS011;42641;59.794;17.616;2023-04-01T11:42:15;3.13;;;0.77;;
56770;SDS011;42641;59.794;17.616;2023-04-01T11:45:24;0.63;;;0.50;;
56770;SDS011;42641;59.794;17.616;2023-04-01T11:48:13;2.27;;;0.60;;
56770;SDS011;42641;59.794;17.616;2023-04-01T11:58:58;0.88;;;0.55;;
56770;SDS011;42641;59.794;17.616;2023-04-01T12:01:59;0.50;;;0.50;;
56770;SDS011;42641;59.794;17.616;2023-04-01T12:10:17;1.52;;;0.60;;
56770;SDS011;42641;59.794;17.616;2023-04-01T12:18:36;0.82;;;0.52;;
56770;SDS011;42641;59.794;17.616;2023-04-01T12:35:13;0.90;;;0.60;;
56770;SDS011;42641;59.794;17.616;2023-04-01T13:00:35;0.82;;;0.57;;
56770;SDS011;42641;59.794;17.616;2023-04-01T13:08:41;0.73;;;0.68;;
56770;SDS011;42641;59.794;17.616;2023-04-01T13:16:48;1.02;;;0.47;;
56770;SDS011;42641;59.794;17.616;2023-04-01T13:20:02;2.80;;;0.80;;
56770;SDS011;42641;59.794;17.616;2023-04-01T13:25:32;0.90;;;0.52;;
56770;SDS011;42641;59.794;17.616;2023-04-01T13:28:21;2.13;;;0.60;;
56770;SDS011;42641;59.794;17.616;2023-04-01T13:31:00;0.60;;;0.43;;
56770;SDS011;42641;59.794;17.616;2023-04-01T13:42:24;1.80;;;0.43;;
56770;SDS011;42641;59.794;17.616;2023-04-01T13:45:11;0.70;;;0.60;;
56770;SDS011;42641;59.794;17.616;2023-04-01T13:55:36;1.60;;;0.63;;
56770;SDS011;42641;59.794;17.616;2023-04-01T14:09:44;0.80;;;0.50;;
56770;SDS011;42641;59.794;17.616;2023-04-01T14:12:26;1.67;;;0.70;;
56770;SDS011;42641;59.794;17.616;2023-04-01T14:20:37;2.33;;;0.73;;
56770;SDS011;42641;59.794;17.616;2023-04-01T14:46:16;1.90;;;1.10;;
56770;SDS011;42641;59.794;17.616;2023-04-01T14:51:29;1.07;;;0.90;;
56770;SDS011;42641;59.794;17.616;2023-04-01T14:54:04;0.97;;;0.70;;
56770;SDS011;42641;59.794;17.616;2023-04-01T14:56:35;0.73;;;0.70;;
56770;SDS011;42641;59.794;17.616;2023-04-01T14:59:10;3.80;;;1.20;;
56770;SDS011;42641;59.794;17.616;2023-04-01T15:32:29;1.50;;;0.93;;
56770;SDS011;42641;59.794;17.616;2023-04-01T15:35:21;4.10;;;0.80;;
56770;SDS011;42641;59.794;17.616;2023-04-01T15:40:54;2.13;;;0.80;;
56770;SDS011;42641;59.794;17.616;2023-04-01T15:43:39;1.67;;;0.93;;
56770;SDS011;42641;59.794;17.616;2023-04-01T15:51:47;2.60;;;1.17;;
56770;SDS011;42641;59.794;17.616;2023-04-01T16:02:31;1.23;;;0.70;;
56770;SDS011;42641;59.794;17.616;2023-04-01T16:07:42;2.40;;;0.70;;
56770;SDS011;42641;59.794;17.616;2023-04-01T16:13:22;2.47;;;1.07;;
56770;SDS011;42641;59.794;17.616;2023-04-01T16:21:35;1.37;;;0.80;;
56770;SDS011;42641;59.794;17.616;2023-04-01T16:24:30;1.57;;;0.80;;
56770;SDS011;42641;59.794;17.616;2023-04-01T16:27:14;2.23;;;1.00;;
56770;SDS011;42641;59.794;17.616;2023-04-01T16:42:09;1.47;;;0.90;;
56770;SDS011;42641;59.794;17.616;2023-04-01T16:45:01;3.30;;;1.07;;
56770;SDS011;42641;59.794;17.616;2023-04-01T16:50:23;2.50;;;1.10;;
56770;SDS011;42641;59.794;17.616;2023-04-01T16:53:08;1.80;;;0.90;;
56770;SDS011;42641;59.794;17.616;2023-04-01T16:58:34;5.73;;;1.30;;
56770;SDS011;42641;59.794;17.616;2023-04-01T17:07:05;4.80;;;1.47;;
56770;SDS011;42641;59.794;17.616;2023-04-01T17:10:00;3.23;;;1.40;;
56770;SDS011;42641;59.794;17.616;2023-04-01T17:15:36;4.90;;;1.40;;
56770;SDS011;42641;59.794;17.616;2023-04-01T17:30:21;3.73;;;1.30;;
56770;SDS011;42641;59.794;17.616;2023-04-01T17:33:23;4.17;;;1.37;;
56770;SDS011;42641;59.794;17.616;2023-04-01T17:36:20;6.13;;;1.50;;
56770;SDS011;42641;59.794;17.616;2023-04-01T17:39:20;3.40;;;1.30;;
56770;SDS011;42641;59.794;17.616;2023-04-01T17:44:41;4.03;;;1.60;;
56770;SDS011;42641;59.794;17.616;2023-04-01T17:49:57;1.80;;;1.13;;
56770;SDS011;42641;59.794;17.616;2023-04-01T18:01:11;1.47;;;1.10;;
56770;SDS011;42641;59.794;17.616;2023-04-01T18:04:17;3.90;;;1.43;;
56770;SDS011;42641;59.794;17.616;2023-04-01T18:11:54;2.70;;;1.60;;
56770;SDS011;42641;59.794;17.616;2023-04-01T18:17:27;4.57;;;1.67;;
56770;SDS011;42641;59.794;17.616;2023-04-01T18:20:19;10.30;;;3.17;;
56770;SDS011;42641;59.794;17.616;2023-04-01T18:23:46;5.23;;;2.73;;
56770;SDS011;42641;59.794;17.616;2023-04-01T18:25:53;3.43;;;1.73;;
56770;SDS011;42641;59.794;17.616;2023-04-01T18:33:53;2.93;;;1.90;;
56770;SDS011;42641;59.794;17.616;2023-04-01T18:39:13;5.63;;;2.00;;
56770;SDS011;42641;59.794;17.616;2023-04-01T18:44:38;5.10;;;2.50;;
56770;SDS011;42641;59.794;17.616;2023-04-01T18:50:07;5.83;;;2.17;;
56770;SDS011;42641;59.794;17.616;2023-04-01T18:52:41;4.13;;;1.80;;
56770;SDS011;42641;59.794;17.616;2023-04-01T18:57:46;7.63;;;2.47;;
56770;SDS011;42641;59.794;17.616;2023-04-01T19:00:24;8.40;;;1.73;;
56770;SDS011;42641;59.794;17.616;2023-04-01T19:05:39;5.40;;;1.83;;
56770;SDS011;42641;59.794;17.616;2023-04-01T19:16:25;5.23;;;1.70;;
56770;SDS011;42641;59.794;17.616;2023-04-01T19:19:18;5.97;;;1.83;;
56770;SDS011;42641;59.794;17.616;2023-04-01T19:21:55;6.00;;;1.80;;
56770;SDS011;42641;59.794;17.616;2023-04-01T19:24:38;4.93;;;1.63;;
56770;SDS011;42641;59.794;17.616;2023-04-01T19:27:29;6.07;;;1.83;;
56770;SDS011;42641;59.794;17.616;2023-04-01T19:38:28;6.13;;;1.83;;
56770;SDS011;42641;59.794;17.616;2023-04-01T19:41:04;7.80;;;1.90;;
56770;SDS011;42641;59.794;17.616;2023-04-01T19:49:06;6.50;;;1.90;;
56770;SDS011;42641;59.794;17.616;2023-04-01T19:51:39;5.77;;;1.90;;
56770;SDS011;42641;59.794;17.616;2023-04-01T19:56:49;4.70;;;1.63;;
56770;SDS011;42641;59.794;17.616;2023-04-01T20:04:48;8.23;;;1.73;;
56770;SDS011;42641;59.794;17.616;2023-04-01T20:07:22;8.87;;;1.93;;
56770;SDS011;42641;59.794;17.616;2023-04-01T20:10:40;4.40;;;1.87;;
56770;SDS011;42641;59.794;17.616;2023-04-01T20:15:42;10.53;;;2.57;;
56770;SDS011;42641;59.794;17.616;2023-04-01T20:18:19;5.70;;;1.97;;
56770;SDS011;42641;59.794;17.616;2023-04-01T20:21:28;8.80;;;2.30;;
56770;SDS011;42641;59.794;17.616;2023-04-01T20:23:49;9.07;;;2.00;;
56770;SDS011;42641;59.794;17.616;2023-04-01T20:26:21;9.37;;;2.10;;
56770;SDS011;42641;59.794;17.616;2023-04-01T20:31:25;5.37;;;1.90;;
56770;SDS011;42641;59.794;17.616;2023-04-01T20:34:15;5.80;;;1.90;;
56770;SDS011;42641;59.794;17.616;2023-04-01T20:37:36;6.40;;;2.40;;
56770;SDS011;42641;59.794;17.616;2023-04-01T20:48:02;7.10;;;2.00;;
56770;SDS011;42641;59.794;17.616;2023-04-01T21:09:51;5.10;;;2.03;;
56770;SDS011;42641;59.794;17.616;2023-04-01T21:18:10;9.83;;;2.43;;
56770;SDS011;42641;59.794;17.616;2023-04-01T21:23:42;10.10;;;3.13;;
56770;SDS011;42641;59.794;17.616;2023-04-01T21:32:32;7.43;;;2.03;;
56770;SDS011;42641;59.794;17.616;2023-04-01T21:37:58;5.03;;;1.77;;
56770;SDS011;42641;59.794;17.616;2023-04-01T21:43:31;7.07;;;2.13;;
56770;SDS011;42641;59.794;17.616;2023-04-01T22:05:58;5.87;;;1.83;;
56770;SDS011;42641;59.794;17.616;2023-04-01T22:08:37;7.87;;;1.83;;
56770;SDS011;42641;59.794;17.616;2023-04-01T22:11:29;7.20;;;2.00;;
56770;SDS011;42641;59.794;17.616;2023-04-01T22:17:28;4.67;;;1.70;;
56770;SDS011;42641;59.794;17.616;2023-04-01T22:28:36;6.00;;;2.13;;
56770;SDS011;42641;59.794;17.616;2023-04-01T22:31:28;5.07;;;1.83;;
56770;SDS011;42641;59.794;17.616;2023-04-01T22:36:50;5.40;;;1.77;;
56770;SDS011;42641;59.794;17.616;2023-04-01T22:42:31;6.13;;;1.90;;
56770;SDS011;42641;59.794;17.616;2023-04-01T22:45:10;5.93;;;2.20;;
56770;SDS011;42641;59.794;17.616;2023-04-01T22:47:56;5.20;;;1.73;;
56770;SDS011;42641;59.794;17.616;2023-04-01T22:50:32;5.50;;;2.07;;
56770;SDS011;42641;59.794;17.616;2023-04-01T22:54:10;8.07;;;2.13;;
56770;SDS011;42641;59.794;17.616;2023-04-01T22:56:12;5.93;;;2.00;;
56770;SDS011;42641;59.794;17.616;2023-04-01T22:58:50;7.43;;;1.90;;
56770;SDS011;42641;59.794;17.616;2023-04-01T23:01:34;6.67;;;2.27;;
56770;SDS011;42641;59.794;17.616;2023-04-01T23:04:07;3.13;;;2.00;;
56770;SDS011;42641;59.794;17.616;2023-04-01T23:06:42;2.57;;;1.60;;
56770;SDS011;42641;59.794;17.616;2023-04-01T23:09:18;2.93;;;2.00;;
56770;SDS011;42641;59.794;17.616;2023-04-01T23:11:51;6.93;;;1.87;;
56770;SDS011;42641;59.794;17.616;2023-04-01T23:38:17;15.83;;;2.07;;
56770;SDS011;42641;59.794;17.616;2023-04-01T23:40:46;5.13;;;1.80;;
56770;SDS011;42641;59.794;17.616;2023-04-01T23:43:21;6.60;;;1.87;;
56770;SDS011;42641;59.794;17.616;2023-04-01T23:46:02;5.93;;;1.80;;
56770;SDS011;42641;59.794;17.616;2023-04-01T23:48:35;5.77;;;1.80;;
56770;SDS011;42641;59.794;17.616;2023-04-01T23:51:50;3.27;;;1.67;;
56770;SDS011;42641;59.794;17.616;2023-04-01T23:54:18;5.80;;;1.93;;
56770;SDS011;42641;59.794;17.616;2023-04-01T23:57:09;6.57;;;2.40;;
56770;SDS011;42641;59.794;17.616;2023-04-01T23:59:39;2.93;;;1.40;;
